Time;durP1;ratioP1;P1;durP2;ratioP2;P2;SDS_P1;SDS_P2;PMS_P1;PMS_P2;Temp;Humidity;BMP_temperature;BMP_pressure;BME280_temperature;BME280_humidity;BME280_pressure;Samples;Min_cycle;Max_cycle;Signal;HPM_P1;HPM_P2
2021/07/14 00:00:31;;;;;;;22.15;16.45;;;691.50;1740.80;;;;;;5082881;28;20025;-58
2021/07/14 00:02:57;;;;;;;17.45;15.80;;;691.50;1740.80;;;;;;5074025;28;20029;-68
2021/07/14 00:05:23;;;;;;;18.48;14.82;;;691.50;1740.80;;;;;;5072556;28;20028;-69
2021/07/14 00:07:49;;;;;;;17.75;15.95;;;691.50;1740.80;;;;;;5073001;28;20407;-60
2021/07/14 00:10:20;;;;;;;19.60;16.65;;;691.40;1740.80;;;;;;5072756;28;20029;-65
2021/07/14 00:13:01;;;;;;;22.08;17.60;;;691.60;1689.60;;;;;;5072719;28;20032;-60
2021/07/14 00:23:18;;;;;;;18.85;16.63;;;691.40;1766.40;;;;;;5072881;28;20031;-57
2021/07/14 00:25:43;;;;;;;20.85;18.60;;;666.50;1920.00;;;;;;5072011;28;20488;-63
2021/07/14 00:28:09;;;;;;;23.30;18.52;;;666.20;1996.80;;;;;;5072132;28;20063;-59
2021/07/14 00:30:37;;;;;;;23.23;19.95;;;666.20;1920.00;;;;;;5072422;28;20024;-63
2021/07/14 00:33:03;;;;;;;19.67;16.75;;;666.30;1894.40;;;;;;5072336;28;20028;-57
2021/07/14 00:35:29;;;;;;;18.05;15.52;;;666.20;1971.20;;;;;;5072244;28;20017;-58
2021/07/14 00:37:55;;;;;;;19.58;17.60;;;666.20;1971.20;;;;;;5072153;28;20040;-57
2021/07/14 00:40:22;;;;;;;19.60;17.48;;;666.30;1971.20;;;;;;5071785;28;20032;-57
2021/07/14 00:42:48;;;;;;;21.70;17.23;;;666.30;1920.00;;;;;;5071883;28;20127;-61
2021/07/14 00:45:14;;;;;;;20.52;17.50;;;666.30;1894.40;;;;;;5071976;28;20113;-57
2021/07/14 00:47:46;;;;;;;19.63;17.63;;;666.40;1843.20;;;;;;5071812;28;20564;-58
2021/07/14 00:50:13;;;;;;;20.50;18.45;;;666.40;1920.00;;;;;;5071866;28;20020;-58
2021/07/14 00:52:39;;;;;;;21.30;17.95;;;666.30;1920.00;;;;;;5071785;28;20028;-58
2021/07/14 00:55:06;;;;;;;20.23;18.08;;;666.30;1971.20;;;;;;5071787;28;20024;-56
2021/07/14 00:57:32;;;;;;;20.30;18.13;;;666.20;1971.20;;;;;;5071438;28;20119;-57
2021/07/14 00:59:58;;;;;;;23.80;18.88;;;666.40;1843.20;;;;;;5071851;28;20538;-62
2021/07/14 01:02:25;;;;;;;29.35;20.80;;;666.50;1894.40;;;;;;5071417;28;20033;-64
2021/07/14 01:05:20;;;;;;;24.50;22.00;;;666.40;1843.20;;;;;;5071191;28;20029;-58
2021/07/14 01:08:07;;;;;;;29.23;26.15;;;691.20;1817.60;;;;;;5071646;28;20021;-57
2021/07/14 01:10:41;;;;;;;29.25;26.20;;;666.50;1843.20;;;;;;5071221;28;20039;-58
2021/07/14 01:13:10;;;;;;;26.15;21.70;;;666.50;1843.20;;;;;;5071505;28;20485;-59
2021/07/14 01:15:40;;;;;;;28.52;24.95;;;666.30;1920.00;;;;;;5071429;28;20036;-67
2021/07/14 01:18:11;;;;;;;25.65;22.98;;;666.20;1920.00;;;;;;5071285;28;20039;-57
2021/07/14 01:21:04;;;;;;;28.67;21.95;;;666.10;1971.20;;;;;;5071560;28;20016;-66
2021/07/14 01:23:47;;;;;;;22.67;19.83;;;665.90;1996.80;;;;;;5071354;28;20024;-64
2021/07/14 01:26:31;;;;;;;22.60;18.98;;;665.90;2048.00;;;;;;5071046;28;20036;-57
2021/07/14 01:28:58;;;;;;;20.00;17.90;;;665.90;2073.60;;;;;;5071214;28;20370;-58
2021/07/14 01:31:25;;;;;;;22.30;18.65;;;665.70;2099.20;;;;;;5070994;28;20025;-68
2021/07/14 01:33:55;;;;;;;23.10;19.60;;;665.60;2124.80;;;;;;5070878;28;20601;-59
2021/07/14 01:36:23;;;;;;;22.00;19.30;;;665.60;2124.80;;;;;;5070693;28;20041;-61
2021/07/14 01:38:49;;;;;;;22.67;20.52;;;665.60;2124.80;;;;;;5069840;28;20029;-60
2021/07/14 01:41:18;;;;;;;27.35;23.33;;;640.90;2099.20;;;;;;5070673;28;20029;-58
2021/07/14 01:43:47;;;;;;;23.65;21.27;;;640.80;2099.20;;;;;;5070471;28;20049;-58
2021/07/14 01:46:14;;;;;;;25.83;21.30;;;640.70;2124.80;;;;;;5070649;28;20493;-58
2021/07/14 01:48:43;;;;;;;32.58;23.13;;;640.70;2124.80;;;;;;5070640;28;20504;-58
2021/07/14 01:51:11;;;;;;;29.80;23.35;;;640.70;2124.80;;;;;;5070958;28;20879;-57
2021/07/14 01:53:38;;;;;;;40.20;27.00;;;640.70;2124.80;;;;;;5070781;28;20474;-58
2021/07/14 01:56:09;;;;;;;29.50;26.08;;;640.70;2099.20;;;;;;5070197;28;20028;-57
2021/07/14 01:58:47;;;;;;;36.78;26.05;;;640.70;2099.20;;;;;;5070885;28;20032;-57
2021/07/14 02:01:17;;;;;;;36.65;28.77;;;640.70;2099.20;;;;;;5070374;28;20032;-58
2021/07/14 02:06:32;;;;;;;46.78;36.25;;;640.70;2073.60;;;;;;5070319;28;20098;-58
2021/07/14 02:08:57;;;;;;;48.42;39.63;;;640.90;2073.60;;;;;;5070528;28;20333;-59
2021/07/14 02:11:24;;;;;;;40.20;34.45;;;640.90;2048.00;;;;;;5070174;28;20466;-62
2021/07/14 02:13:52;;;;;;;31.23;25.23;;;640.90;2073.60;;;;;;5070301;28;20450;-58
2021/07/14 02:16:18;;;;;;;25.00;22.08;;;640.80;2099.20;;;;;;5069890;28;20100;-57
2021/07/14 02:18:47;;;;;;;28.08;23.02;;;640.60;2150.40;;;;;;5070200;28;20559;-57
2021/07/14 02:21:13;;;;;;;27.92;21.20;;;640.50;2150.40;;;;;;5070170;28;20028;-68
2021/07/14 02:23:40;;;;;;;26.65;23.08;;;640.50;2124.80;;;;;;5070708;28;20048;-67
2021/07/14 02:26:05;;;;;;;28.92;23.13;;;640.50;2124.80;;;;;;5070282;28;20108;-63
2021/07/14 02:28:32;;;;;;;24.27;19.83;;;640.50;2099.20;;;;;;5070115;28;20107;-58
2021/07/14 02:30:57;;;;;;;27.90;21.85;;;640.70;1945.60;;;;;;5070333;28;20021;-66
2021/07/14 02:33:23;;;;;;;24.92;21.75;;;665.60;1766.40;;;;;;5070108;28;20382;-57
2021/07/14 02:35:53;;;;;;;22.85;20.35;;;665.70;1843.20;;;;;;5070281;28;20056;-57
2021/07/14 02:38:24;;;;;;;20.00;14.82;;;665.90;1843.20;;;;;;5070313;28;20021;-67
2021/07/14 02:41:02;;;;;;;19.05;14.52;;;666.40;1638.40;;;;;;5070144;28;20029;-58
2021/07/14 02:43:29;;;;;;;17.52;15.73;;;691.30;1612.80;;;;;;5070071;28;20551;-68
2021/07/14 02:45:58;;;;;;;16.73;15.05;;;691.30;1638.40;;;;;;5069985;28;20040;-57
2021/07/14 02:48:26;;;;;;;23.63;20.80;;;666.50;1664.00;;;;;;5069631;28;20111;-66
2021/07/14 02:50:53;;;;;;;25.65;21.23;;;666.10;1971.20;;;;;;5069796;28;20029;-66
2021/07/14 02:53:39;;;;;;;20.98;18.73;;;665.60;2073.60;;;;;;5070018;28;20029;-59
2021/07/14 02:56:14;;;;;;;24.95;20.05;;;640.90;2022.40;;;;;;5069809;28;20043;-57
2021/07/14 02:58:43;;;;;;;25.83;19.98;;;640.90;1996.80;;;;;;5069771;28;20036;-58
2021/07/14 03:01:12;;;;;;;25.30;22.20;;;640.90;1996.80;;;;;;5069965;28;20717;-58
2021/07/14 03:03:38;;;;;;;24.50;20.90;;;640.90;2048.00;;;;;;5070085;28;20029;-59
2021/07/14 03:06:05;;;;;;;27.25;22.60;;;640.90;1996.80;;;;;;5069858;28;20035;-56
2021/07/14 03:08:32;;;;;;;23.65;20.83;;;640.80;2022.40;;;;;;5069722;28;20041;-58
2021/07/14 03:11:00;;;;;;;31.33;26.25;;;640.80;1996.80;;;;;;5069816;28;20600;-62
2021/07/14 03:13:28;;;;;;;29.77;26.25;;;640.80;1971.20;;;;;;5069767;28;20036;-67
2021/07/14 03:15:56;;;;;;;28.55;25.77;;;640.80;1971.20;;;;;;5069537;28;20058;-66
2021/07/14 03:18:25;;;;;;;30.55;27.00;;;640.80;1996.80;;;;;;5069626;28;20039;-59
2021/07/14 03:20:56;;;;;;;31.90;25.83;;;640.70;1971.20;;;;;;5069721;28;20116;-58
2021/07/14 03:23:23;;;;;;;29.77;26.65;;;640.70;1996.80;;;;;;5069492;28;20029;-65
2021/07/14 03:25:51;;;;;;;31.75;28.67;;;640.60;1996.80;;;;;;5069695;28;20025;-58
2021/07/14 03:28:18;;;;;;;29.35;26.15;;;640.60;2022.40;;;;;;5070131;28;20033;-59
2021/07/14 03:30:45;;;;;;;24.17;21.58;;;640.50;2022.40;;;;;;5073404;28;20025;-69
2021/07/14 03:33:12;;;;;;;28.45;20.42;;;640.70;1996.80;;;;;;5073329;28;20505;-61
2021/07/14 03:35:39;;;;;;;24.67;20.60;;;640.90;1945.60;;;;;;5073412;28;20031;-58
2021/07/14 03:38:08;;;;;;;30.50;22.40;;;640.80;1945.60;;;;;;5073414;28;20037;-58
2021/07/14 03:40:36;;;;;;;37.00;23.63;;;665.70;1945.60;;;;;;5073334;28;20025;-57
2021/07/14 03:43:03;;;;;;;33.30;23.63;;;665.90;1945.60;;;;;;5072708;28;20052;-61
2021/07/14 03:45:31;;;;;;;24.52;19.00;;;666.00;1920.00;;;;;;5073602;28;20536;-57
2021/07/14 03:47:58;;;;;;;22.20;19.75;;;666.20;1894.40;;;;;;5072918;28;20409;-58
2021/07/14 03:50:24;;;;;;;27.40;23.13;;;666.30;1920.00;;;;;;5072856;28;20025;-58
2021/07/14 03:52:51;;;;;;;24.38;20.42;;;691.20;1894.40;;;;;;5073141;28;20028;-58
2021/07/14 03:55:18;;;;;;;25.08;20.42;;;666.50;1894.40;;;;;;5072930;28;20490;-58
2021/07/14 03:57:44;;;;;;;25.58;20.73;;;691.20;1894.40;;;;;;5072065;28;20118;-67
2021/07/14 04:00:10;;;;;;;25.02;20.85;;;691.30;1868.80;;;;;;5072271;28;20374;-58
2021/07/14 04:02:37;;;;;;;29.63;20.70;;;691.40;1894.40;;;;;;5072965;28;20020;-58
2021/07/14 04:05:07;;;;;;;22.85;15.32;;;691.50;1843.20;;;;;;5072842;28;20024;-58
2021/07/14 04:07:34;;;;;;;19.63;17.58;;;692.10;1766.40;;;;;;5072573;28;20027;-69
2021/07/14 04:10:02;;;;;;;17.88;15.75;;;692.10;1766.40;;;;;;5072351;28;20029;-58
2021/07/14 04:12:28;;;;;;;17.05;15.13;;;716.80;1740.80;;;;;;5072502;28;20063;-57
2021/07/14 04:14:54;;;;;;;18.25;15.85;;;717.00;1740.80;;;;;;5071612;28;20029;-63
2021/07/14 04:17:19;;;;;;;22.08;15.32;;;717.20;1715.20;;;;;;5072167;28;20395;-61
2021/07/14 04:19:45;;;;;;;19.88;15.02;;;717.20;1740.80;;;;;;5072854;28;20027;-65
2021/07/14 04:22:12;;;;;;;18.10;14.88;;;717.50;1689.60;;;;;;5072403;28;20478;-58
2021/07/14 04:24:40;;;;;;;18.58;15.18;;;717.50;1715.20;;;;;;5072528;28;20056;-69
2021/07/14 04:27:06;;;;;;;28.63;17.33;;;717.70;1664.00;;;;;;5072611;28;20032;-70
2021/07/14 04:29:32;;;;;;;17.85;15.80;;;742.80;1689.60;;;;;;5072078;28;20544;-58
2021/07/14 04:31:58;;;;;;;22.85;16.02;;;743.00;1664.00;;;;;;5072653;28;20075;-57
2021/07/14 04:34:24;;;;;;;19.17;17.13;;;743.20;1689.60;;;;;;5072322;28;20044;-58
2021/07/14 04:36:51;;;;;;;20.35;16.23;;;743.30;1638.40;;;;;;5072069;28;20029;-57
2021/07/14 04:39:17;;;;;;;16.67;14.93;;;768.40;1612.80;;;;;;5071455;28;20112;-54
2021/07/14 04:41:43;;;;;;;23.67;16.50;;;768.60;1561.60;;;;;;5071554;28;20175;-54
2021/07/14 04:44:10;;;;;;;20.65;16.70;;;794.00;1587.20;;;;;;5071983;28;20101;-54
2021/07/14 04:46:37;;;;;;;28.42;18.10;;;819.60;1536.00;;;;;;5072077;28;20111;-54
2021/07/14 04:49:03;;;;;;;22.45;19.20;;;845.50;1510.40;;;;;;5071637;28;20028;-54
2021/07/14 04:51:29;;;;;;;25.77;18.20;;;845.40;1484.80;;;;;;5071987;28;20025;-62
2021/07/14 04:53:55;;;;;;;21.20;16.70;;;870.70;1382.40;;;;;;5071833;28;20099;-54
2021/07/14 04:56:21;;;;;;;17.20;15.45;;;870.90;1331.20;;;;;;5071547;28;20387;-54
2021/07/14 04:58:48;;;;;;;16.70;15.18;;;896.00;1280.00;;;;;;5071855;28;20451;-54
2021/07/14 05:01:17;;;;;;;25.10;16.27;;;871.30;1254.40;;;;;;5071494;28;20048;-54
2021/07/14 05:03:45;;;;;;;17.45;14.40;;;896.50;1254.40;;;;;;5071720;28;20025;-54
2021/07/14 05:06:15;;;;;;;20.13;15.23;;;896.90;1228.80;;;;;;5071449;28;20483;-55
2021/07/14 05:08:42;;;;;;;18.23;16.40;;;922.20;1228.80;;;;;;5071318;28;20120;-54
2021/07/14 05:11:08;;;;;;;17.90;16.10;;;922.40;1203.20;;;;;;5071451;28;20017;-72
2021/07/14 05:13:34;;;;;;;19.40;16.65;;;922.30;1203.20;;;;;;5071117;28;20028;-54
2021/07/14 05:15:59;;;;;;;19.20;17.08;;;947.20;1177.60;;;;;;5071241;28;20081;-54
2021/07/14 05:18:25;;;;;;;21.75;17.02;;;972.80;1152.00;;;;;;5071475;28;20477;-62
2021/07/14 05:20:51;;;;;;;22.27;17.77;;;922.50;1152.00;;;;;;5071135;28;20033;-55
2021/07/14 05:23:17;;;;;;;19.98;17.90;;;921.90;1203.20;;;;;;5071649;28;20020;-54
2021/07/14 05:25:43;;;;;;;21.02;16.75;;;947.50;1152.00;;;;;;5071071;28;20035;-54
2021/07/14 05:28:10;;;;;;;18.67;17.00;;;973.00;1126.40;;;;;;5071027;28;20021;-55
2021/07/14 05:30:39;;;;;;;21.15;18.95;;;973.70;1024.00;;;;;;5071298;28;20025;-55
2021/07/14 05:33:05;;;;;;;27.58;21.05;;;947.70;1152.00;;;;;;5071280;28;20024;-54
2021/07/14 05:35:31;;;;;;;22.58;20.20;;;947.60;1126.40;;;;;;5071091;28;20024;-55
2021/07/14 05:37:57;;;;;;;22.60;19.80;;;947.80;1152.00;;;;;;5071009;28;20036;-54
2021/07/14 05:40:23;;;;;;;21.92;19.88;;;973.20;1100.80;;;;;;5070788;28;20020;-71
2021/07/14 05:42:49;;;;;;;21.45;19.25;;;998.80;1075.20;;;;;;5070655;28;20047;-55
2021/07/14 05:45:15;;;;;;;20.80;18.75;;;1024.00;1049.60;;;;;;5070909;28;20052;-72
2021/07/14 05:47:41;;;;;;;21.92;18.58;;;998.40;1100.80;;;;;;5070679;28;20036;-72
2021/07/14 05:50:08;;;;;;;21.02;18.83;;;973.20;972.80;;;;;;5070735;28;20024;-54
2021/07/14 05:52:34;;;;;;;24.15;17.98;;;998.40;1075.20;;;;;;5070492;28;20065;-55
2021/07/14 05:54:59;;;;;;;22.38;20.17;;;999.00;1049.60;;;;;;5070346;28;20029;-55
2021/07/14 05:57:25;;;;;;;22.13;19.38;;;1024.00;1049.60;;;;;;5070611;28;20033;-72
2021/07/14 05:59:51;;;;;;;22.60;18.98;;;999.10;1049.60;;;;;;5070199;28;20024;-56
2021/07/14 06:02:17;;;;;;;26.42;20.55;;;999.30;1024.00;;;;;;5070726;28;20064;-55
2021/07/14 06:04:43;;;;;;;25.85;20.15;;;1024.10;1024.00;;;;;;5070435;28;20029;-55
2021/07/14 06:07:09;;;;;;;24.27;20.42;;;1050.00;972.80;;;;;;5052192;28;20041;-55
2021/07/14 06:09:35;;;;;;;22.15;20.08;;;1075.40;947.20;;;;;;5070486;28;20060;-55
2021/07/14 06:12:00;;;;;;;27.77;21.33;;;1101.20;921.60;;;;;;5070103;28;20063;-55
2021/07/14 06:14:26;;;;;;;27.73;20.38;;;1126.80;896.00;;;;;;5070243;28;20112;-72
2021/07/14 06:16:52;;;;;;;24.38;19.75;;;1101.70;896.00;;;;;;5070005;28;20036;-55
2021/07/14 06:19:18;;;;;;;23.15;20.13;;;1126.40;921.60;;;;;;5070352;28;20020;-55
2021/07/14 06:21:45;;;;;;;21.63;19.45;;;1100.90;921.60;;;;;;5069890;28;20029;-54
2021/07/14 06:24:11;;;;;;;27.30;22.42;;;1101.60;870.40;;;;;;5070033;28;20024;-60
2021/07/14 06:26:38;;;;;;;24.55;22.08;;;1100.80;921.60;;;;;;5070299;28;20074;-71
2021/07/14 06:29:05;;;;;;;26.92;24.23;;;1101.10;896.00;;;;;;5069858;28;20024;-59
2021/07/14 06:31:31;;;;;;;24.73;22.48;;;1152.10;870.40;;;;;;5069945;28;20153;-55
2021/07/14 06:33:57;;;;;;;25.77;23.40;;;1177.60;819.20;;;;;;5070269;28;20123;-54
2021/07/14 06:36:23;;;;;;;22.35;20.10;;;1152.60;793.60;;;;;;5069888;28;20032;-55
2021/07/14 06:38:48;;;;;;;21.33;19.23;;;1127.30;844.80;;;;;;5070307;28;20029;-55
2021/07/14 06:41:17;;;;;;;21.00;19.08;;;1126.80;819.20;;;;;;5069901;28;20017;-55
2021/07/14 06:43:49;;;;;;;20.92;19.08;;;1152.40;768.00;;;;;;5069443;28;20052;-54
2021/07/14 06:46:18;;;;;;;22.00;19.75;;;1152.00;716.80;;;;;;5070038;28;20039;-55
2021/07/14 06:48:44;;;;;;;22.33;20.52;;;1152.20;716.80;;;;;;5069814;28;20082;-72
2021/07/14 06:51:11;;;;;;;27.73;19.85;;;1177.60;691.20;;;;;;5069699;28;20029;-61
2021/07/14 06:53:37;;;;;;;25.23;20.85;;;1178.20;614.40;;;;;;5069932;28;20425;-55
2021/07/14 06:56:04;;;;;;;23.60;21.40;;;1152.90;665.60;;;;;;5069639;28;20031;-55
2021/07/14 06:58:30;;;;;;;28.75;21.27;;;1177.60;640.00;;;;;;5069597;28;20028;-56
2021/07/14 07:00:56;;;;;;;23.10;20.15;;;1203.80;614.40;;;;;;5070113;28;20024;-71
2021/07/14 07:03:22;;;;;;;26.02;23.35;;;1229.30;614.40;;;;;;5071265;28;20043;-61
2021/07/14 07:05:49;;;;;;;26.52;23.10;;;1229.00;563.20;;;;;;5073990;28;20067;-56
2021/07/14 07:08:14;;;;;;;26.08;23.73;;;1254.80;563.20;;;;;;5073935;28;20112;-54
2021/07/14 07:10:41;;;;;;;25.58;22.90;;;1229.40;537.60;;;;;;5073687;28;20104;-54
2021/07/14 07:13:07;;;;;;;21.73;19.73;;;1254.80;563.20;;;;;;5073640;28;20032;-71
2021/07/14 07:15:33;;;;;;;24.00;21.40;;;1280.40;588.80;;;;;;5073535;28;20050;-55
2021/07/14 07:17:59;;;;;;;23.15;21.05;;;1280.50;563.20;;;;;;5073838;28;20033;-62
2021/07/14 07:20:24;;;;;;;22.00;19.80;;;1305.60;537.60;;;;;;5073745;28;20016;-55
2021/07/14 07:22:50;;;;;;;24.83;21.25;;;1280.70;537.60;;;;;;5073451;28;20418;-55
2021/07/14 07:25:16;;;;;;;24.85;20.73;;;1280.50;537.60;;;;;;5073773;28;20020;-58
2021/07/14 07:27:43;;;;;;;26.13;23.83;;;1255.10;563.20;;;;;;5073589;28;20039;-55
2021/07/14 07:30:11;;;;;;;25.80;23.52;;;1305.90;486.40;;;;;;5073611;28;20027;-54
2021/07/14 07:32:37;;;;;;;28.13;25.40;;;1306.20;486.40;;;;;;5073369;28;20028;-70
2021/07/14 07:35:04;;;;;;;25.63;23.02;;;1305.60;486.40;;;;;;5073148;28;20031;-54
2021/07/14 07:37:30;;;;;;;27.65;23.70;;;1280.90;486.40;;;;;;5073178;28;20028;-54
2021/07/14 07:39:56;;;;;;;25.80;23.15;;;1280.20;486.40;;;;;;5064880;28;20394;-66
2021/07/14 07:42:22;;;;;;;25.52;23.10;;;1280.00;512.00;;;;;;5060459;28;20041;-66
2021/07/14 07:44:48;;;;;;;25.85;23.33;;;1280.00;486.40;;;;;;5057997;28;20053;-67
2021/07/14 07:47:14;;;;;;;30.33;26.88;;;1280.00;512.00;;;;;;5058530;28;20021;-55
2021/07/14 07:49:45;;;;;;;30.95;26.73;;;1280.70;486.40;;;;;;5058438;28;20664;-70
2021/07/14 07:52:11;;;;;;;31.25;25.13;;;1280.70;486.40;;;;;;5061670;28;20033;-65
2021/07/14 07:54:37;;;;;;;25.33;22.67;;;1254.50;486.40;;;;;;5062449;28;20016;-54
2021/07/14 07:57:03;;;;;;;28.05;25.20;;;1255.30;486.40;;;;;;5061771;28;20040;-66
2021/07/14 07:59:28;;;;;;;29.13;26.55;;;1254.90;486.40;;;;;;5054633;28;20063;-56
2021/07/14 08:01:54;;;;;;;25.40;22.77;;;1280.20;486.40;;;;;;5054121;28;20051;-58
2021/07/14 08:04:20;;;;;;;26.02;23.58;;;1255.30;486.40;;;;;;5053938;28;20379;-67
2021/07/14 08:06:46;;;;;;;25.38;23.13;;;1255.30;486.40;;;;;;5054027;28;20115;-55
2021/07/14 08:09:11;;;;;;;26.83;24.33;;;1254.60;486.40;;;;;;5053491;28;20383;-55
2021/07/14 08:11:37;;;;;;;25.65;23.27;;;1254.80;486.40;;;;;;5065661;28;20021;-70
2021/07/14 08:14:03;;;;;;;24.73;22.08;;;1229.20;460.80;;;;;;5065241;28;20048;-53
2021/07/14 08:16:29;;;;;;;28.67;26.27;;;1204.10;460.80;;;;;;5065681;28;20020;-67
2021/07/14 08:18:56;;;;;;;28.30;25.80;;;1229.70;460.80;;;;;;5065969;28;20025;-70
2021/07/14 08:21:23;;;;;;;28.50;25.52;;;1229.40;460.80;;;;;;5053721;28;20439;-70
2021/07/14 08:23:50;;;;;;;28.02;25.05;;;1203.40;435.20;;;;;;5051336;28;20124;-54
2021/07/14 08:26:15;;;;;;;28.30;24.67;;;1152.20;486.40;;;;;;5052393;28;20043;-63
2021/07/14 08:28:42;;;;;;;25.85;23.17;;;1101.50;512.00;;;;;;5051645;28;20017;-58
2021/07/14 08:31:09;;;;;;;25.73;22.42;;;1075.80;537.60;;;;;;5052053;28;20132;-68
2021/07/14 08:33:35;;;;;;;25.35;22.30;;;1050.50;563.20;;;;;;5052178;28;20024;-56
2021/07/14 08:36:01;;;;;;;28.85;23.30;;;1050.20;563.20;;;;;;5051436;28;20071;-63
2021/07/14 08:38:28;;;;;;;26.08;22.75;;;1049.80;588.80;;;;;;5052219;28;20029;-55
2021/07/14 08:40:54;;;;;;;30.05;23.45;;;1049.70;588.80;;;;;;5051570;28;20100;-55
2021/07/14 08:43:24;;;;;;;27.27;22.55;;;1049.70;588.80;;;;;;5051280;28;20403;-58
2021/07/14 08:45:52;;;;;;;30.35;22.85;;;1049.90;588.80;;;;;;5051335;28;20391;-57
2021/07/14 08:48:18;;;;;;;34.30;23.52;;;1049.90;588.80;;;;;;5063941;28;20021;-57
2021/07/14 08:50:44;;;;;;;24.08;21.50;;;1024.70;563.20;;;;;;5063558;28;20028;-62
2021/07/14 08:53:18;;;;;;;21.83;19.77;;;1024.40;588.80;;;;;;5064133;28;20063;-58
2021/07/14 08:55:46;;;;;;;25.58;22.55;;;1024.70;563.20;;;;;;5064057;28;20036;-61
2021/07/14 08:58:13;;;;;;;23.38;20.63;;;1024.00;588.80;;;;;;5063959;28;20036;-60
2021/07/14 09:00:39;;;;;;;26.13;20.08;;;1024.50;588.80;;;;;;5050910;28;20028;-54
2021/07/14 09:03:05;;;;;;;22.75;20.50;;;1024.30;588.80;;;;;;5047492;28;20108;-58
2021/07/14 09:05:32;;;;;;;25.10;19.90;;;1024.40;588.80;;;;;;5047821;28;20025;-67
2021/07/14 09:07:57;;;;;;;22.30;18.85;;;1024.20;588.80;;;;;;5030408;28;20029;-56
2021/07/14 09:10:23;;;;;;;23.83;20.08;;;1024.30;588.80;;;;;;5049652;28;20050;-64
2021/07/14 09:12:53;;;;;;;24.20;19.65;;;1024.20;614.40;;;;;;5050843;28;20028;-55
2021/07/14 09:15:21;;;;;;;22.75;19.27;;;1024.30;614.40;;;;;;5049514;28;20446;-57
2021/07/14 09:17:52;;;;;;;23.58;19.13;;;1024.50;614.40;;;;;;5048770;28;20033;-62
2021/07/14 09:20:25;;;;;;;20.60;16.25;;;1024.50;614.40;;;;;;5048553;28;20028;-56
2021/07/14 09:23:31;;;;;;;24.65;17.90;;;1024.60;588.80;;;;;;5048490;28;20241;-56
2021/07/14 09:26:00;;;;;;;20.90;16.42;;;1024.70;588.80;;;;;;4947580;28;20114;-64
2021/07/14 09:28:34;;;;;;;19.05;16.98;;;1049.80;614.40;;;;;;4947189;28;20058;-62
2021/07/14 09:31:01;;;;;;;21.50;17.08;;;1049.60;614.40;;;;;;4962671;28;20102;-55
2021/07/14 09:33:27;;;;;;;21.63;17.38;;;1024.30;614.40;;;;;;4965220;28;20030;-56
2021/07/14 09:35:54;;;;;;;21.00;16.73;;;1024.00;614.40;;;;;;4964711;28;20033;-57
2021/07/14 09:38:35;;;;;;;18.88;16.80;;;1024.30;614.40;;;;;;4964970;28;20147;-56
2021/07/14 09:41:06;;;;;;;21.85;17.45;;;1024.50;614.40;;;;;;4964925;28;20118;-66
2021/07/14 09:43:45;;;;;;;17.45;15.68;;;1024.60;588.80;;;;;;4964204;28;20478;-57
2021/07/14 09:46:13;;;;;;;19.95;15.45;;;1024.70;588.80;;;;;;4964823;28;20042;-66
2021/07/14 09:48:47;;;;;;;18.45;13.80;;;1024.60;614.40;;;;;;4951291;28;20528;-60
2021/07/14 09:51:13;;;;;;;19.35;16.23;;;1024.30;588.80;;;;;;4955386;28;20123;-52
2021/07/14 09:53:53;;;;;;;21.30;15.57;;;1024.70;588.80;;;;;;4958879;28;20031;-62
2021/07/14 09:56:25;;;;;;;22.40;16.38;;;1024.20;614.40;;;;;;4970140;28;20035;-65
2021/07/14 09:59:05;;;;;;;21.10;15.75;;;1049.70;640.00;;;;;;4978417;28;20035;-55
2021/07/14 10:01:46;;;;;;;21.08;16.92;;;1049.90;640.00;;;;;;5070683;28;20070;-55
2021/07/14 10:04:13;;;;;;;22.08;16.90;;;1024.70;588.80;;;;;;5063411;28;20360;-60
2021/07/14 10:06:39;;;;;;;20.33;16.70;;;1024.10;614.40;;;;;;5051164;28;20036;-64
2021/07/14 10:09:06;;;;;;;16.42;14.13;;;1024.00;640.00;;;;;;5050870;28;20029;-55
2021/07/14 10:11:36;;;;;;;19.63;13.40;;;1024.20;614.40;;;;;;5050448;28;20478;-63
2021/07/14 10:14:07;;;;;;;21.65;14.52;;;1024.30;614.40;;;;;;5050276;28;20029;-64
2021/07/14 10:16:34;;;;;;;17.92;14.20;;;1024.00;588.80;;;;;;5050073;28;20544;-64
2021/07/14 10:19:10;;;;;;;15.25;13.55;;;1024.30;588.80;;;;;;5050148;28;20053;-59
2021/07/14 10:21:41;;;;;;;18.92;14.02;;;1024.50;588.80;;;;;;5050228;28;20017;-65
2021/07/14 10:24:10;;;;;;;16.48;13.20;;;1024.40;588.80;;;;;;5050196;28;20063;-55
2021/07/14 10:26:38;;;;;;;19.55;13.02;;;1024.70;588.80;;;;;;5050338;28;20102;-65
2021/07/14 10:29:05;;;;;;;14.02;12.25;;;1024.60;588.80;;;;;;5050100;28;20033;-55
2021/07/14 10:31:31;;;;;;;19.63;14.52;;;1049.60;614.40;;;;;;5049842;28;20032;-55
2021/07/14 10:33:57;;;;;;;35.28;18.08;;;1049.90;614.40;;;;;;5049914;28;20071;-64
2021/07/14 10:36:27;;;;;;;24.42;18.42;;;1050.00;640.00;;;;;;5049652;28;20035;-55
2021/07/14 10:38:58;;;;;;;24.77;19.20;;;1049.90;640.00;;;;;;5048971;28;20056;-55
2021/07/14 10:41:27;;;;;;;22.50;20.17;;;1049.80;640.00;;;;;;5049678;28;20021;-54
2021/07/14 10:43:54;;;;;;;24.75;20.67;;;1049.80;665.60;;;;;;5049651;28;20452;-56
2021/07/14 10:46:23;;;;;;;27.05;19.27;;;1049.90;665.60;;;;;;5049818;28;20107;-56
2021/07/14 10:48:50;;;;;;;29.85;21.23;;;1049.90;640.00;;;;;;5050075;28;20423;-55
2021/07/14 10:51:16;;;;;;;30.35;23.95;;;1049.80;665.60;;;;;;5049973;28;20423;-55
2021/07/14 10:53:45;;;;;;;32.28;26.38;;;1049.60;665.60;;;;;;5049630;28;20055;-55
2021/07/14 10:56:13;;;;;;;31.98;20.48;;;1024.90;665.60;;;;;;5049747;28;20033;-56
2021/07/14 10:58:40;;;;;;;25.58;21.13;;;1049.70;691.20;;;;;;5049839;28;20033;-55
2021/07/14 11:01:06;;;;;;;43.58;23.70;;;1024.60;640.00;;;;;;5049784;28;20021;-66
2021/07/14 11:03:33;;;;;;;24.88;19.88;;;1024.50;665.60;;;;;;5049535;28;20040;-56
2021/07/14 11:05:59;;;;;;;26.73;19.75;;;1024.50;640.00;;;;;;5049793;28;20379;-65
2021/07/14 11:08:42;;;;;;;23.52;18.55;;;1024.10;665.60;;;;;;5049561;28;20402;-55
2021/07/14 11:11:22;;;;;;;46.60;21.33;;;1024.00;665.60;;;;;;5049592;28;20017;-55
2021/07/14 11:14:03;;;;;;;26.35;18.67;;;1024.10;665.60;;;;;;5049973;28;20021;-66
2021/07/14 11:16:39;;;;;;;24.40;17.48;;;1024.50;640.00;;;;;;5049557;28;20112;-55
2021/07/14 11:19:17;;;;;;;28.75;18.25;;;1024.90;640.00;;;;;;5049697;28;20142;-65
2021/07/14 11:21:52;;;;;;;26.98;15.77;;;1049.70;640.00;;;;;;5049741;28;20024;-55
2021/07/14 11:24:36;;;;;;;25.67;14.55;;;1024.70;614.40;;;;;;5049644;28;20025;-55
2021/07/14 11:27:27;;;;;;;20.98;14.65;;;1024.60;614.40;;;;;;5049278;28;20079;-55
2021/07/14 11:29:55;;;;;;;23.83;15.25;;;1024.60;614.40;;;;;;5049502;28;20446;-63
2021/07/14 11:32:33;;;;;;;26.58;16.55;;;1024.50;614.40;;;;;;5049451;28;20031;-56
2021/07/14 11:35:16;;;;;;;26.88;15.90;;;1024.40;614.40;;;;;;5049457;28;20033;-55
2021/07/14 11:37:57;;;;;;;28.85;16.25;;;1024.20;614.40;;;;;;5049015;28;20041;-55
2021/07/14 11:40:25;;;;;;;23.30;16.75;;;1024.40;614.40;;;;;;5049322;28;20028;-56
2021/07/14 11:42:56;;;;;;;26.52;16.48;;;1024.40;614.40;;;;;;5048971;28;20075;-55
2021/07/14 11:45:36;;;;;;;30.05;16.88;;;1024.20;614.40;;;;;;5049166;28;20063;-56
2021/07/14 11:48:08;;;;;;;18.83;12.75;;;1024.20;614.40;;;;;;5049097;28;20041;-55
2021/07/14 11:50:46;;;;;;;21.02;13.77;;;1024.10;537.60;;;;;;5052259;28;20025;-55
2021/07/14 11:53:36;;;;;;;21.50;13.68;;;1024.10;563.20;;;;;;5052962;28;20064;-58
2021/07/14 11:56:26;;;;;;;26.15;14.18;;;1024.20;588.80;;;;;;5052570;28;20024;-65
2021/07/14 11:59:00;;;;;;;15.75;12.00;;;1024.20;563.20;;;;;;5052562;28;20523;-55
2021/07/14 12:01:26;;;;;;;16.23;12.13;;;1024.20;588.80;;;;;;5052792;28;20356;-57
2021/07/14 12:06:57;;;;;;;17.90;12.20;;;1024.00;563.20;;;;;;5052957;28;20032;-54
2021/07/14 12:09:27;;;;;;;19.25;11.75;;;999.30;614.40;;;;;;5052803;28;20107;-56
2021/07/14 12:12:09;;;;;;;17.85;11.73;;;999.10;614.40;;;;;;5052398;28;20091;-55
2021/07/14 12:14:40;;;;;;;20.50;10.88;;;999.00;614.40;;;;;;5052455;28;20029;-56
2021/07/14 12:17:08;;;;;;;20.63;11.82;;;999.00;588.80;;;;;;5052477;28;20554;-55
2021/07/14 12:19:35;;;;;;;17.70;11.32;;;999.00;588.80;;;;;;5052284;28;20056;-54